createdAt,value
2022-11-13T00:01:22.086Z,9.11
2022-11-13T00:03:49.217Z,9.14
2022-11-13T00:06:17.113Z,9.28
2022-11-13T00:08:47.103Z,9.14
2022-11-13T00:11:19.949Z,8.98
2022-11-13T00:13:50.474Z,9.12
2022-11-13T00:16:25.030Z,9.20
2022-11-13T00:18:56.532Z,9.12
2022-11-13T00:21:29.890Z,9.21
2022-11-13T00:23:57.409Z,9.26
2022-11-13T00:26:29.789Z,9.23
2022-11-13T00:29:02.207Z,9.23
2022-11-13T00:31:30.138Z,9.25
2022-11-13T00:34:25.983Z,9.21
2022-11-13T00:36:49.263Z,9.20
2022-11-13T00:39:16.247Z,9.12
2022-11-13T00:41:45.310Z,9.27
2022-11-13T00:44:16.744Z,9.15
2022-11-13T00:46:43.655Z,9.22
2022-11-13T00:49:13.154Z,9.19
2022-11-13T00:51:40.110Z,9.15
2022-11-13T00:54:07.031Z,9.18
2022-11-13T00:56:33.926Z,9.04
2022-11-13T00:59:05.667Z,8.98
2022-11-13T01:01:34.815Z,9.00
2022-11-13T01:04:01.816Z,9.03
2022-11-13T01:06:31.412Z,9.04
2022-11-13T01:09:01.084Z,8.91
2022-11-13T01:11:32.561Z,8.89
2022-11-13T01:13:59.467Z,8.90
2022-11-13T01:16:31.720Z,8.90
2022-11-13T01:18:58.651Z,8.87
2022-11-13T01:21:27.580Z,8.84
2022-11-13T01:23:57.342Z,8.89
2022-11-13T01:26:32.636Z,8.84
2022-11-13T01:29:00.466Z,8.97
2022-11-13T01:31:30.977Z,8.82
2022-11-13T01:34:00.718Z,8.82
2022-11-13T01:36:29.809Z,8.93
2022-11-13T01:38:59.089Z,9.04
2022-11-13T01:41:30.707Z,8.95
2022-11-13T01:44:00.965Z,8.83
2022-11-13T01:46:46.153Z,8.71
2022-11-13T01:49:38.929Z,8.76
2022-11-13T01:52:26.918Z,8.86
2022-11-13T01:55:02.791Z,8.72
2022-11-13T01:57:32.397Z,8.69
2022-11-13T02:00:09.317Z,8.58
2022-11-13T02:02:42.784Z,8.67
2022-11-13T02:05:09.774Z,8.69
2022-11-13T02:07:39.628Z,8.61
2022-11-13T02:10:10.518Z,8.61
2022-11-13T02:12:43.317Z,8.80
2022-11-13T02:15:10.697Z,8.72
2022-11-13T02:17:56.757Z,8.80
2022-11-13T02:20:40.238Z,8.57
2022-11-13T02:24:21.325Z,8.57
2022-11-13T02:26:53.248Z,8.67
2022-11-13T02:29:24.650Z,8.78
2022-11-13T02:31:51.719Z,8.67
2022-11-13T02:34:18.823Z,8.64
2022-11-13T02:36:45.923Z,8.62
2022-11-13T02:39:16.440Z,8.67
2022-11-13T02:41:45.539Z,8.56
2022-11-13T02:44:14.955Z,8.48
2022-11-13T02:46:41.892Z,8.53
2022-11-13T02:49:11.079Z,8.62
2022-11-13T02:51:38.108Z,8.63
2022-11-13T02:54:05.457Z,8.62
2022-11-13T02:56:32.466Z,8.65
2022-11-13T02:59:01.613Z,8.76
2022-11-13T03:01:33.852Z,8.65
2022-11-13T03:04:03.442Z,8.49
2022-11-13T03:06:30.418Z,8.61
2022-11-13T03:08:59.731Z,8.57
2022-11-13T03:11:26.863Z,8.54
2022-11-13T03:13:56.632Z,8.64
2022-11-13T03:16:23.530Z,8.48
2022-11-13T03:18:50.432Z,8.38
2022-11-13T03:21:17.482Z,8.66
2022-11-13T03:23:47.349Z,8.61
2022-11-13T03:26:17.033Z,8.63
2022-11-13T03:28:46.538Z,8.69
2022-11-13T03:31:13.815Z,8.66
2022-11-13T03:33:40.745Z,8.60
2022-11-13T03:36:08.242Z,8.47
2022-11-13T03:38:38.063Z,8.62
2022-11-13T03:41:05.616Z,8.63
2022-11-13T03:43:32.612Z,8.56
2022-11-13T03:45:59.563Z,8.57
2022-11-13T03:48:26.895Z,8.49
2022-11-13T03:50:59.615Z,8.66
2022-11-13T03:53:26.762Z,8.60
2022-11-13T03:55:53.926Z,8.67
2022-11-13T03:58:23.162Z,8.68
2022-11-13T04:00:54.127Z,8.73
2022-11-13T04:03:21.123Z,8.64
2022-11-13T04:05:51.725Z,8.67
2022-11-13T04:08:19.022Z,8.63
2022-11-13T04:10:46.510Z,8.58
2022-11-13T04:13:13.549Z,8.59
2022-11-13T04:15:43.541Z,8.57
2022-11-13T04:18:15.064Z,8.52
2022-11-13T04:20:44.972Z,8.60
2022-11-13T04:23:14.271Z,8.58
2022-11-13T04:25:44.194Z,8.48
2022-11-13T04:28:11.793Z,8.49
2022-11-13T04:30:39.276Z,8.52
2022-11-13T04:33:08.331Z,8.57
2022-11-13T04:35:35.486Z,8.36
2022-11-13T04:38:04.656Z,8.34
2022-11-13T04:40:31.631Z,8.39
2022-11-13T04:43:00.887Z,8.40
2022-11-13T04:45:28.103Z,8.44
2022-11-13T04:47:55.368Z,8.45
2022-11-13T04:50:23.540Z,8.46
2022-11-13T04:52:53.927Z,8.42
2022-11-13T04:55:23.013Z,8.36
2022-11-13T04:57:54.620Z,8.35
2022-11-13T05:00:23.849Z,8.40
2022-11-13T05:02:50.765Z,8.24
2022-11-13T05:05:19.955Z,8.37
2022-11-13T05:07:46.851Z,8.41
2022-11-13T05:10:13.983Z,8.42
2022-11-13T05:12:40.898Z,8.29
2022-11-13T05:15:08.487Z,8.34
2022-11-13T05:17:35.505Z,8.37
2022-11-13T05:20:04.852Z,8.24
2022-11-13T05:22:31.919Z,8.28
2022-11-13T05:25:00.916Z,8.39
2022-11-13T05:27:30.357Z,8.34
2022-11-13T05:29:59.718Z,8.28
2022-11-13T05:32:29.004Z,8.39
2022-11-13T05:34:58.032Z,8.26
2022-11-13T05:37:25.016Z,8.29
2022-11-13T05:39:54.933Z,8.38
2022-11-13T05:42:21.865Z,8.28
2022-11-13T05:44:48.736Z,8.18
2022-11-13T05:47:15.764Z,8.16
2022-11-13T05:49:42.723Z,8.35
2022-11-13T05:52:09.592Z,8.36
2022-11-13T05:54:37.113Z,8.17
2022-11-13T05:57:06.349Z,8.12
2022-11-13T05:59:35.857Z,8.21
2022-11-13T06:02:05.753Z,8.27
2022-11-13T06:04:35.253Z,8.02
2022-11-13T06:07:04.287Z,8.04
2022-11-13T06:09:33.752Z,7.96
2022-11-13T06:12:00.678Z,7.80
2022-11-13T06:14:30.522Z,7.78
2022-11-13T06:16:59.810Z,7.88
2022-11-13T06:19:26.754Z,7.91
2022-11-13T06:21:56.199Z,7.85
2022-11-13T06:24:23.145Z,7.69
2022-11-13T06:26:53.377Z,7.72
2022-11-13T06:29:22.540Z,7.85
2022-11-13T06:31:49.443Z,7.87
2022-11-13T06:34:21.389Z,7.81
2022-11-13T06:36:50.479Z,7.92
2022-11-13T06:39:21.998Z,7.95
2022-11-13T06:41:48.967Z,7.95
2022-11-13T06:44:15.910Z,7.89
2022-11-13T06:46:49.878Z,7.82
2022-11-13T06:49:19.180Z,7.81
2022-11-13T06:51:46.046Z,7.88
2022-11-13T06:54:12.904Z,7.69
2022-11-13T06:56:46.545Z,7.68
2022-11-13T06:59:16.067Z,7.69
2022-11-13T07:01:42.957Z,7.78
2022-11-13T07:04:14.701Z,7.83
2022-11-13T07:06:44.179Z,7.90
2022-11-13T07:09:11.153Z,7.90
2022-11-13T07:11:39.240Z,8.07
2022-11-13T07:14:06.112Z,8.15
2022-11-13T07:17:04.451Z,8.10
2022-11-13T07:19:25.987Z,8.21
2022-11-13T07:21:55.359Z,8.45
2022-11-13T07:24:24.566Z,8.46
2022-11-13T07:26:54.445Z,8.62
2022-11-13T07:29:24.314Z,8.79
2022-11-13T07:31:55.453Z,8.91
2022-11-13T07:34:22.329Z,8.86
2022-11-13T07:36:51.345Z,8.70
2022-11-13T07:39:20.863Z,8.66
2022-11-13T07:41:48.302Z,8.28
2022-11-13T07:44:39.972Z,8.27
2022-11-13T07:47:04.523Z,8.17
2022-11-13T07:49:31.439Z,8.32
2022-11-13T07:52:00.891Z,8.40
2022-11-13T07:54:30.781Z,8.43
2022-11-13T07:56:59.902Z,8.44
2022-11-13T07:59:26.830Z,8.43
2022-11-13T08:01:53.778Z,8.88
2022-11-13T08:04:20.749Z,8.84
2022-11-13T08:06:50.914Z,9.15
2022-11-13T08:09:18.009Z,9.30
2022-11-13T08:11:45.036Z,9.26
2022-11-13T08:14:12.147Z,9.54
2022-11-13T08:16:39.046Z,9.78
2022-11-13T08:19:08.950Z,9.50
2022-11-13T08:21:36.526Z,9.62
2022-11-13T08:24:06.413Z,9.65
2022-11-13T08:26:33.281Z,9.60
2022-11-13T08:29:00.610Z,9.59
2022-11-13T08:31:27.538Z,9.62
2022-11-13T08:33:56.863Z,9.57
2022-11-13T08:36:26.194Z,9.48
2022-11-13T08:38:53.070Z,9.53
2022-11-13T08:41:19.942Z,9.76
2022-11-13T08:43:51.733Z,9.89
2022-11-13T08:46:18.613Z,9.95
2022-11-13T08:48:48.428Z,10.19
2022-11-13T08:51:15.276Z,9.91
2022-11-13T08:53:44.220Z,10.09
2022-11-13T08:56:11.075Z,10.09
2022-11-13T08:58:37.964Z,10.18
2022-11-13T09:01:07.643Z,10.40
2022-11-13T09:03:36.988Z,10.03
2022-11-13T09:06:10.386Z,9.77
2022-11-13T09:08:39.552Z,9.75
2022-11-13T09:11:07.098Z,9.63
2022-11-13T09:13:37.534Z,9.78
2022-11-13T09:16:11.568Z,9.78
2022-11-13T09:18:38.406Z,9.79
2022-11-13T09:21:11.092Z,9.98
2022-11-13T09:23:37.936Z,9.55
2022-11-13T09:26:05.060Z,9.26
2022-11-13T09:28:34.393Z,9.17
2022-11-13T09:31:05.262Z,8.84
2022-11-13T09:33:32.128Z,9.06
2022-11-13T09:35:59.003Z,9.27
2022-11-13T09:38:26.426Z,9.10
2022-11-13T09:41:17.451Z,9.10
2022-11-13T09:44:10.060Z,9.35
2022-11-13T09:46:47.563Z,9.54
2022-11-13T09:49:18.545Z,9.81
2022-11-13T09:51:56.030Z,9.34
2022-11-13T09:54:23.675Z,9.34
2022-11-13T09:57:36.618Z,9.76
2022-11-13T10:00:16.171Z,9.79
2022-11-13T10:02:46.214Z,9.57
2022-11-13T10:05:28.387Z,9.42
2022-11-13T10:08:27.515Z,9.70
2022-11-13T10:11:18.334Z,9.59
2022-11-13T10:13:56.241Z,9.37
2022-11-13T10:16:43.403Z,9.52
2022-11-13T10:19:29.890Z,9.39
2022-11-13T10:22:35.079Z,9.66
2022-11-13T10:25:20.244Z,9.82
2022-11-13T10:28:43.686Z,9.89
2022-11-13T10:31:10.496Z,10.00
2022-11-13T10:33:37.519Z,9.91
2022-11-13T10:36:34.020Z,9.47
2022-11-13T10:39:11.595Z,9.27
2022-11-13T10:41:57.631Z,9.67
2022-11-13T10:44:35.355Z,9.46
2022-11-13T10:47:42.474Z,9.62
2022-11-13T10:50:24.408Z,9.47
2022-11-13T10:52:54.548Z,9.38
2022-11-13T10:55:41.067Z,9.73
2022-11-13T10:58:18.856Z,9.78
2022-11-13T11:00:49.241Z,9.68
2022-11-13T11:03:24.472Z,9.59
2022-11-13T11:06:11.294Z,9.41
2022-11-13T11:08:41.313Z,9.61
2022-11-13T11:11:38.633Z,9.43
2022-11-13T11:14:30.035Z,9.58
2022-11-13T11:16:58.293Z,9.50
2022-11-13T11:19:32.293Z,9.65
2022-11-13T11:22:25.930Z,9.89
2022-11-13T11:25:10.154Z,9.80
2022-11-13T11:28:24.290Z,9.68
2022-11-13T11:31:01.887Z,9.53
2022-11-13T11:33:37.795Z,10.01
2022-11-13T11:36:31.088Z,10.47
2022-11-13T11:39:19.824Z,10.29
2022-11-13T11:42:25.667Z,10.37
2022-11-13T11:45:16.843Z,10.77
2022-11-13T11:47:46.471Z,10.82
2022-11-13T11:50:29.544Z,10.74
2022-11-13T11:53:45.817Z,10.81
2022-11-13T11:56:21.468Z,10.81
2022-11-13T11:59:18.184Z,10.66
2022-11-13T12:02:06.266Z,10.62
2022-11-13T12:05:36.564Z,10.89
2022-11-13T12:08:12.354Z,11.34
2022-11-13T12:11:16.051Z,10.85
2022-11-13T12:14:07.680Z,10.67
2022-11-13T12:17:00.355Z,10.88
2022-11-13T12:19:56.730Z,10.55
2022-11-13T12:22:57.586Z,10.61
2022-11-13T12:25:43.365Z,10.68
2022-11-13T12:28:38.271Z,10.60
2022-11-13T12:32:06.463Z,10.57
2022-11-13T12:35:06.126Z,11.07
2022-11-13T12:38:01.706Z,11.06
2022-11-13T12:41:01.820Z,11.09
2022-11-13T12:43:46.964Z,10.92
2022-11-13T12:46:14.562Z,10.46
2022-11-13T12:48:49.528Z,10.47
2022-11-13T12:51:18.819Z,10.81
2022-11-13T12:53:55.960Z,10.87
2022-11-13T12:56:28.345Z,11.14
2022-11-13T12:59:29.261Z,10.74
2022-11-13T13:02:11.009Z,10.66
2022-11-13T13:05:07.425Z,10.70
2022-11-13T13:08:13.127Z,11.14
2022-11-13T13:10:53.774Z,11.15
2022-11-13T13:13:41.575Z,11.31
2022-11-13T13:16:12.037Z,11.26
2022-11-13T13:18:42.676Z,11.29
2022-11-13T13:21:10.928Z,10.95
2022-11-13T13:23:44.393Z,11.12
2022-11-13T13:26:25.293Z,11.19
2022-11-13T13:29:03.156Z,11.09
2022-11-13T13:32:17.992Z,11.19
2022-11-13T13:35:17.698Z,10.78
2022-11-13T13:38:29.593Z,10.82
2022-11-13T13:41:16.894Z,10.86
2022-11-13T13:44:53.276Z,11.22
2022-11-13T13:47:35.650Z,11.29
2022-11-13T13:50:10.223Z,11.28
2022-11-13T13:52:40.193Z,11.45
2022-11-13T13:55:18.199Z,11.56
2022-11-13T13:57:47.972Z,11.13
2022-11-13T14:00:20.800Z,10.93
2022-11-13T14:02:52.415Z,10.77
2022-11-13T14:05:25.420Z,10.49
2022-11-13T14:07:52.324Z,10.62
2022-11-13T14:10:28.111Z,10.57
2022-11-13T14:12:56.540Z,10.51
2022-11-13T14:15:32.618Z,10.66
2022-11-13T14:21:01.318Z,10.83
2022-11-13T14:23:36.932Z,10.98
2022-11-13T14:26:07.611Z,10.60
2022-11-13T14:28:53.276Z,10.72
2022-11-13T14:31:30.475Z,10.86
2022-11-13T14:34:01.939Z,10.93
2022-11-13T14:36:34.242Z,10.76
2022-11-13T14:39:01.332Z,10.65
2022-11-13T14:41:40.570Z,10.66
2022-11-13T14:44:10.749Z,10.57
2022-11-13T14:46:47.928Z,10.88
2022-11-13T14:49:27.044Z,10.77
2022-11-13T14:51:58.775Z,11.01
2022-11-13T14:54:59.990Z,11.26
2022-11-13T14:57:24.083Z,11.55
2022-11-13T14:59:50.932Z,11.29
2022-11-13T15:02:20.318Z,11.27
2022-11-13T15:04:47.190Z,11.22
2022-11-13T15:07:34.375Z,11.01
2022-11-13T15:10:01.539Z,11.28
2022-11-13T15:12:28.393Z,11.20
2022-11-13T15:14:59.748Z,11.39
2022-11-13T15:17:26.690Z,11.49
2022-11-13T15:19:56.931Z,11.62
2022-11-13T15:22:27.678Z,11.74
2022-11-13T15:24:55.408Z,11.55
2022-11-13T15:27:25.292Z,11.75
2022-11-13T15:29:52.205Z,12.18
2022-11-13T15:32:21.174Z,12.31
2022-11-13T15:34:48.076Z,12.14
2022-11-13T15:37:16.972Z,12.28
2022-11-13T15:39:44.095Z,11.83
2022-11-13T15:42:15.573Z,11.96
2022-11-13T15:44:42.585Z,11.84
2022-11-13T15:47:37.335Z,12.13
2022-11-13T15:50:15.276Z,12.00
2022-11-13T15:52:48.880Z,11.85
2022-11-13T15:55:31.358Z,11.80
2022-11-13T15:58:03.210Z,11.60
2022-11-13T16:00:33.222Z,11.71
2022-11-13T16:03:00.174Z,11.60
2022-11-13T16:05:29.310Z,11.50
2022-11-13T16:07:56.719Z,11.55
2022-11-13T16:10:25.440Z,11.82
2022-11-13T16:12:55.452Z,11.84
2022-11-13T16:15:22.723Z,11.89
2022-11-13T16:17:54.585Z,11.53
2022-11-13T16:20:29.076Z,11.64
2022-11-13T16:22:55.995Z,11.56
2022-11-13T16:25:23.216Z,11.64
2022-11-13T16:27:54.210Z,11.64
2022-11-13T16:30:23.398Z,11.46
2022-11-13T16:32:50.748Z,11.41
2022-11-13T16:35:22.928Z,11.55
2022-11-13T16:37:49.847Z,11.56
2022-11-13T16:40:24.710Z,11.28
2022-11-13T16:42:52.165Z,11.16
2022-11-13T16:45:20.549Z,11.41
2022-11-13T16:47:47.855Z,11.41
2022-11-13T16:50:29.771Z,11.56
2022-11-13T16:52:56.778Z,11.31
2022-11-13T16:55:24.195Z,11.16
2022-11-13T16:57:51.759Z,11.16
2022-11-13T17:00:20.374Z,11.35
2022-11-13T17:02:52.809Z,11.33
2022-11-13T17:05:21.991Z,11.59
2022-11-13T17:07:55.590Z,11.63
2022-11-13T17:10:31.471Z,11.26
2022-11-13T17:13:00.033Z,11.35
2022-11-13T17:15:27.082Z,11.44
2022-11-13T17:17:58.272Z,11.53
2022-11-13T17:20:25.449Z,11.28
2022-11-13T17:22:54.684Z,11.40
2022-11-13T17:25:26.494Z,11.48
2022-11-13T17:27:56.046Z,11.44
2022-11-13T17:30:23.272Z,11.50
2022-11-13T17:32:52.253Z,11.42
2022-11-13T17:35:19.142Z,11.43
2022-11-13T17:37:49.495Z,11.57
2022-11-13T17:40:16.638Z,11.70
2022-11-13T17:42:48.056Z,11.76
2022-11-13T17:45:17.765Z,11.59
2022-11-13T17:47:44.755Z,11.19
2022-11-13T17:50:11.802Z,11.32
2022-11-13T17:52:43.307Z,11.47
2022-11-13T17:55:13.000Z,11.62
2022-11-13T17:57:42.148Z,11.63
2022-11-13T18:00:09.993Z,11.76
2022-11-13T18:02:41.385Z,11.89
2022-11-13T18:05:10.725Z,11.72
2022-11-13T18:07:38.281Z,11.48
2022-11-13T18:10:05.930Z,11.21
2022-11-13T18:12:32.866Z,11.39
2022-11-13T18:14:59.749Z,11.62
2022-11-13T18:17:26.877Z,11.36
2022-11-13T18:20:00.408Z,11.42
2022-11-13T18:22:31.575Z,11.54
2022-11-13T18:25:03.179Z,11.62
2022-11-13T18:27:30.277Z,11.48
2022-11-13T18:29:57.231Z,11.43
2022-11-13T18:32:24.146Z,11.64
2022-11-13T18:34:55.533Z,11.68
2022-11-13T18:37:22.709Z,11.51
2022-11-13T18:39:49.718Z,11.06
2022-11-13T18:42:21.300Z,11.25
2022-11-13T18:44:48.195Z,11.62
2022-11-13T18:47:17.898Z,11.99
2022-11-13T18:49:44.808Z,11.93
2022-11-13T18:52:16.283Z,11.93
2022-11-13T18:54:43.161Z,11.93
2022-11-13T18:57:12.369Z,12.03
2022-11-13T18:59:39.239Z,11.95
2022-11-13T19:02:11.574Z,12.10
2022-11-13T19:04:38.585Z,12.15
2022-11-13T19:07:05.862Z,11.88
2022-11-13T19:09:35.375Z,12.07
2022-11-13T19:12:04.636Z,12.28
2022-11-13T19:14:31.545Z,12.20
2022-11-13T19:17:00.735Z,12.15
2022-11-13T19:19:27.865Z,11.93
2022-11-13T19:21:54.772Z,12.00
2022-11-13T19:24:21.707Z,12.04
2022-11-13T19:26:48.719Z,12.08
2022-11-13T19:29:15.751Z,12.08
2022-11-13T19:31:44.738Z,12.04
2022-11-13T19:34:12.508Z,11.99
2022-11-13T19:36:41.401Z,11.79
2022-11-13T19:39:09.813Z,11.70
2022-11-13T19:41:36.888Z,11.60
2022-11-13T19:44:05.941Z,11.65
2022-11-13T19:46:34.020Z,11.37
2022-11-13T19:49:01.206Z,11.39
2022-11-13T19:51:28.404Z,11.44
2022-11-13T19:53:59.996Z,11.14
2022-11-13T19:56:30.296Z,11.14
2022-11-13T19:58:59.479Z,11.24
2022-11-13T20:01:29.363Z,11.35
2022-11-13T20:04:04.232Z,11.53
2022-11-13T20:06:35.354Z,11.55
2022-11-13T20:09:04.126Z,11.52
2022-11-13T20:11:32.247Z,11.27
2022-11-13T20:13:59.382Z,11.32
2022-11-13T20:16:26.849Z,11.45
2022-11-13T20:18:58.003Z,11.36
2022-11-13T20:21:27.144Z,11.39
2022-11-13T20:23:57.895Z,11.22
2022-11-13T20:26:25.592Z,11.32
2022-11-13T20:28:52.815Z,11.50
2022-11-13T20:31:23.355Z,11.34
2022-11-13T20:33:52.534Z,11.11
2022-11-13T20:36:23.468Z,11.17
2022-11-13T20:38:55.281Z,11.13
2022-11-13T20:41:29.908Z,11.00
2022-11-13T20:44:01.702Z,10.83
2022-11-13T20:46:29.619Z,10.96
2022-11-13T20:48:57.557Z,10.88
2022-11-13T20:51:27.204Z,10.65
2022-11-13T20:53:56.810Z,10.66
2022-11-13T20:56:26.420Z,10.55
2022-11-13T20:58:53.879Z,10.40
2022-11-13T21:01:27.509Z,10.70
2022-11-13T21:03:56.023Z,10.52
2022-11-13T21:06:25.064Z,10.42
2022-11-13T21:08:55.144Z,10.46
2022-11-13T21:11:25.515Z,10.35
2022-11-13T21:13:58.199Z,10.60
2022-11-13T21:16:25.657Z,10.22
2022-11-13T21:18:52.584Z,10.31
2022-11-13T21:21:22.111Z,10.35
2022-11-13T21:23:49.592Z,10.56
2022-11-13T21:26:19.380Z,10.66
2022-11-13T21:28:46.528Z,10.50
2022-11-13T21:31:19.596Z,10.39
2022-11-13T21:33:48.309Z,10.39
2022-11-13T21:36:24.885Z,10.46
2022-11-13T21:38:55.904Z,10.76
2022-11-13T21:41:25.100Z,10.77
2022-11-13T21:43:59.660Z,10.74
2022-11-13T21:46:33.262Z,10.49
2022-11-13T21:49:11.182Z,10.21
2022-11-13T21:51:42.439Z,10.31
2022-11-13T21:54:12.408Z,10.55
2022-11-13T21:56:42.260Z,10.33
2022-11-13T21:59:11.724Z,10.47
2022-11-13T22:01:39.040Z,10.48
2022-11-13T22:04:13.706Z,10.27
2022-11-13T22:06:40.649Z,10.35
2022-11-13T22:09:17.656Z,10.46
2022-11-13T22:11:44.911Z,10.47
2022-11-13T22:14:14.378Z,10.51
2022-11-13T22:16:46.351Z,10.52
2022-11-13T22:19:23.966Z,10.34
2022-11-13T22:21:54.023Z,10.30
2022-11-13T22:24:21.029Z,10.50
2022-11-13T22:26:48.421Z,10.63
2022-11-13T22:29:17.606Z,10.40
2022-11-13T22:31:45.036Z,10.42
2022-11-13T22:34:12.149Z,10.57
2022-11-13T22:36:39.100Z,10.52
2022-11-13T22:39:06.703Z,10.42
2022-11-13T22:41:36.317Z,10.57
2022-11-13T22:44:14.325Z,10.38
2022-11-13T22:46:45.900Z,10.54
2022-11-13T22:49:12.985Z,10.48
2022-11-13T22:51:41.668Z,10.38
2022-11-13T22:54:12.500Z,10.42
2022-11-13T22:56:41.206Z,10.25
2022-11-13T22:59:11.440Z,10.33
2022-11-13T23:01:47.587Z,10.73
2022-11-13T23:04:14.560Z,10.62
2022-11-13T23:06:42.895Z,10.53
2022-11-13T23:09:12.388Z,10.34
2022-11-13T23:11:41.140Z,9.95
2022-11-13T23:14:13.778Z,10.19
2022-11-13T23:16:40.751Z,10.18
2022-11-13T23:19:10.743Z,10.31
2022-11-13T23:21:39.839Z,10.36
2022-11-13T23:24:11.354Z,10.41
2022-11-13T23:26:40.423Z,10.18
2022-11-13T23:29:07.289Z,10.17
2022-11-13T23:31:34.116Z,10.07
2022-11-13T23:34:04.034Z,9.87
2022-11-13T23:36:35.981Z,9.96
2022-11-13T23:39:07.883Z,10.13
2022-11-13T23:41:35.097Z,9.98
2022-11-13T23:44:09.169Z,9.67
2022-11-13T23:46:39.655Z,9.98
2022-11-13T23:49:11.028Z,9.85
2022-11-13T23:51:41.069Z,9.49
2022-11-13T23:54:08.063Z,9.61
2022-11-13T23:56:34.940Z,9.66
2022-11-13T23:59:01.808Z,9.77
